Time;durP1;ratioP1;P1;durP2;ratioP2;P2;SDS_P1;SDS_P2;PMS_P1;PMS_P2;Temp;Humidity;BMP_temperature;BMP_pressure;BME280_temperature;BME280_humidity;BME280_pressure;Samples;Min_cycle;Max_cycle;Signal;HPM_P1;HPM_P2
2023/01/18 00:00:40;;;;;;;29.33;12.00;;;2.20;99.90;;;;;;5052619;28;20170;-80
2023/01/18 00:03:11;;;;;;;21.77;12.55;;;2.20;99.90;;;;;;5052441;28;20262;-80
2023/01/18 00:05:39;;;;;;;17.75;11.65;;;2.40;99.90;;;;;;5052019;28;20254;-80
2023/01/18 00:08:06;;;;;;;20.30;12.20;;;2.40;99.90;;;;;;5052024;28;20189;-80
2023/01/18 00:10:31;;;;;;;33.45;13.85;;;2.30;99.90;;;;;;5052329;28;20190;-80
2023/01/18 00:12:57;;;;;;;29.30;14.77;;;2.40;99.90;;;;;;5053979;28;20537;-80
2023/01/18 00:15:23;;;;;;;22.75;12.48;;;2.40;99.90;;;;;;5051884;28;20179;-80
2023/01/18 00:17:51;;;;;;;26.55;12.95;;;2.30;99.90;;;;;;5051840;28;20218;-80
2023/01/18 00:20:19;;;;;;;35.05;13.38;;;2.30;99.90;;;;;;5052099;28;20182;-81
2023/01/18 00:22:45;;;;;;;24.70;13.73;;;2.20;99.90;;;;;;5053396;28;20175;-81
2023/01/18 00:25:10;;;;;;;23.25;13.85;;;2.10;99.90;;;;;;5051805;28;20193;-80
2023/01/18 00:27:37;;;;;;;27.42;13.48;;;2.00;99.90;;;;;;5053065;28;20166;-81
2023/01/18 00:30:07;;;;;;;27.77;13.85;;;1.80;99.90;;;;;;5052951;28;20266;-81
2023/01/18 00:32:33;;;;;;;36.50;13.98;;;1.70;99.90;;;;;;5053188;28;20171;-81
2023/01/18 00:34:59;;;;;;;22.52;12.07;;;1.90;99.90;;;;;;5053121;28;20671;-80
2023/01/18 00:37:26;;;;;;;20.73;13.35;;;1.90;99.90;;;;;;5051794;28;20553;-81
2023/01/18 00:39:52;;;;;;;22.60;12.85;;;2.00;99.90;;;;;;5051915;28;20258;-80
2023/01/18 00:45:02;;;;;;;20.00;13.13;;;1.70;99.90;;;;;;5053476;28;20194;-81
2023/01/18 00:47:27;;;;;;;22.85;13.88;;;1.80;99.90;;;;;;5052971;28;20171;-81
2023/01/18 00:49:53;;;;;;;27.15;13.10;;;2.10;99.90;;;;;;5053091;28;20186;-80
2023/01/18 00:52:18;;;;;;;18.15;12.75;;;2.00;99.90;;;;;;5053002;28;20163;-80
2023/01/18 00:54:44;;;;;;;32.03;13.38;;;2.00;99.90;;;;;;5051294;28;20183;-81
2023/01/18 00:57:10;;;;;;;26.85;13.68;;;1.80;99.90;;;;;;5051094;28;20544;-80
2023/01/18 00:59:36;;;;;;;25.70;12.45;;;1.90;99.90;;;;;;5053059;28;20197;-81
2023/01/18 01:02:01;;;;;;;25.63;13.05;;;2.00;99.90;;;;;;5051514;28;20624;-80
2023/01/18 01:07:11;;;;;;;22.05;12.15;;;2.00;99.90;;;;;;5052676;28;20186;-80
2023/01/18 01:09:38;;;;;;;25.65;13.00;;;1.80;99.90;;;;;;5052429;28;20167;-82
2023/01/18 01:26:12;;;;;;;28.88;12.38;;;1.60;99.90;;;;;;5052287;28;20236;-80
2023/01/18 01:28:42;;;;;;;25.55;13.40;;;1.50;99.90;;;;;;5052193;28;20591;-80
2023/01/18 01:31:10;;;;;;;19.27;11.35;;;1.40;99.90;;;;;;5050575;28;20573;-81
2023/01/18 01:33:37;;;;;;;18.60;12.32;;;1.40;99.90;;;;;;5050831;28;20876;-82
2023/01/18 01:36:12;;;;;;;19.20;12.07;;;1.10;99.90;;;;;;5052163;28;20206;-81
2023/01/18 01:38:40;;;;;;;11.80;10.57;;;1.10;99.90;;;;;;5052248;28;20206;-81
2023/01/18 01:41:10;;;;;;;18.10;12.55;;;1.10;99.90;;;;;;5050985;28;20220;-81
2023/01/18 01:43:45;;;;;;;33.45;13.25;;;0.90;99.90;;;;;;5052362;28;20178;-81
2023/01/18 01:46:21;;;;;;;22.13;10.05;;;0.90;99.90;;;;;;5052204;28;20182;-81
2023/01/18 01:48:47;;;;;;;23.83;11.57;;;1.00;99.90;;;;;;5051973;28;21079;-82
2023/01/18 01:51:17;;;;;;;21.02;12.05;;;1.00;99.90;;;;;;5052124;28;20168;-80
2023/01/18 01:53:43;;;;;;;20.92;11.30;;;1.00;99.90;;;;;;5050728;28;20647;-81
2023/01/18 01:56:10;;;;;;;28.50;12.40;;;1.00;99.90;;;;;;5051643;28;20552;-81
2023/01/18 01:58:36;;;;;;;18.23;10.98;;;1.10;99.90;;;;;;5051794;28;20210;-81
2023/01/18 02:01:01;;;;;;;20.95;11.05;;;1.10;99.90;;;;;;5051625;28;20163;-81
2023/01/18 02:03:28;;;;;;;16.17;10.38;;;1.10;99.90;;;;;;5051610;28;20167;-82
2023/01/18 02:06:08;;;;;;;19.17;11.00;;;1.20;99.90;;;;;;5050690;28;20195;-81
2023/01/18 02:08:33;;;;;;;21.45;12.95;;;1.10;99.90;;;;;;5052252;28;20174;-82
2023/01/18 02:10:59;;;;;;;23.65;12.15;;;1.10;99.90;;;;;;5051989;28;20163;-81
2023/01/18 02:13:25;;;;;;;16.38;10.80;;;1.10;99.90;;;;;;5050420;28;20174;-79
2023/01/18 02:16:25;;;;;;;25.98;13.07;;;1.30;99.90;;;;;;5051784;28;20188;-81
2023/01/18 02:19:12;;;;;;;24.90;14.25;;;1.40;99.90;;;;;;5027808;28;20214;-80
2023/01/18 02:21:46;;;;;;;22.60;11.57;;;2.00;99.90;;;;;;5052273;28;20722;-80
2023/01/18 02:24:36;;;;;;;23.03;12.20;;;2.10;99.90;;;;;;5051673;28;20228;-80
2023/01/18 02:27:42;;;;;;;16.55;11.52;;;2.10;99.90;;;;;;5051530;28;20163;-80
2023/01/18 02:30:08;;;;;;;22.80;10.50;;;1.90;99.90;;;;;;5042136;28;20503;-81
2023/01/18 02:33:10;;;;;;;18.73;11.05;;;1.50;99.90;;;;;;5050234;28;20237;-80
2023/01/18 02:35:55;;;;;;;18.25;11.63;;;1.10;99.90;;;;;;5055627;28;20191;-80
2023/01/18 02:38:43;;;;;;;19.47;11.03;;;1.20;99.90;;;;;;5054405;28;20221;-81
2023/01/18 02:47:25;;;;;;;27.00;10.98;;;1.70;99.90;;;;;;5055805;28;20190;-80
2023/01/18 02:49:50;;;;;;;16.92;10.70;;;1.30;99.90;;;;;;5053951;28;20179;-80
2023/01/18 02:52:41;;;;;;;23.25;11.90;;;1.20;99.90;;;;;;5055429;28;20529;-81
2023/01/18 02:55:15;;;;;;;23.40;11.47;;;1.00;99.90;;;;;;5053721;28;20214;-80
2023/01/18 02:57:40;;;;;;;16.57;11.77;;;1.20;99.90;;;;;;5054690;28;20332;-81
2023/01/18 03:00:09;;;;;;;19.40;11.57;;;1.20;99.90;;;;;;5054965;28;20250;-80
2023/01/18 03:02:37;;;;;;;17.13;10.85;;;1.50;99.90;;;;;;5053820;28;20175;-81
2023/01/18 03:05:03;;;;;;;15.60;11.30;;;1.50;99.90;;;;;;5053579;28;20191;-81
2023/01/18 03:07:33;;;;;;;17.13;10.87;;;1.40;99.90;;;;;;5053657;28;20262;-81
2023/01/18 03:10:02;;;;;;;25.98;12.68;;;1.50;99.90;;;;;;5053819;28;20171;-80
2023/01/18 03:12:45;;;;;;;20.97;11.20;;;1.70;99.90;;;;;;5053317;28;20543;-81
2023/01/18 03:15:39;;;;;;;18.83;10.88;;;1.70;99.90;;;;;;5053444;28;20653;-81
2023/01/18 03:18:11;;;;;;;19.63;11.37;;;1.50;99.90;;;;;;5053560;28;20675;-81
2023/01/18 03:20:42;;;;;;;18.47;11.37;;;1.20;99.90;;;;;;5072554;28;20186;-80
2023/01/18 03:26:09;;;;;;;15.23;11.52;;;1.30;99.90;;;;;;5062985;28;20601;-81
2023/01/18 03:35:15;;;;;;;19.02;10.57;;;1.10;99.90;;;;;;5058784;28;20210;-80
2023/01/18 03:37:43;;;;;;;16.97;11.03;;;1.30;99.90;;;;;;5057558;28;20214;-81
2023/01/18 03:40:21;;;;;;;22.15;10.57;;;1.30;99.90;;;;;;5058704;28;20175;-81
2023/01/18 03:42:53;;;;;;;25.33;11.25;;;1.10;99.90;;;;;;5061884;28;20167;-80
2023/01/18 03:45:37;;;;;;;23.47;11.80;;;1.10;99.90;;;;;;5061182;28;20199;-81
2023/01/18 03:48:05;;;;;;;16.57;11.70;;;1.00;99.90;;;;;;5072184;28;20734;-80
2023/01/18 03:51:01;;;;;;;24.13;12.45;;;1.10;99.90;;;;;;5063073;28;20190;-81
2023/01/18 03:53:33;;;;;;;22.88;12.32;;;1.20;99.90;;;;;;5059009;28;20186;-80
2023/01/18 03:56:06;;;;;;;22.10;10.85;;;1.30;99.90;;;;;;5069488;28;20179;-80
2023/01/18 03:58:42;;;;;;;26.83;10.80;;;1.20;99.90;;;;;;5075616;28;20211;-80
2023/01/18 04:01:08;;;;;;;17.95;11.15;;;1.20;99.90;;;;;;5069881;28;20167;-81
2023/01/18 04:03:34;;;;;;;18.10;11.27;;;1.00;99.90;;;;;;5067592;28;20235;-81
2023/01/18 04:06:03;;;;;;;21.70;10.77;;;0.90;99.90;;;;;;5062307;28;20193;-81
2023/01/18 04:08:31;;;;;;;24.20;11.48;;;0.90;99.90;;;;;;5064138;28;20150;-81
2023/01/18 04:10:57;;;;;;;21.80;11.05;;;1.00;99.90;;;;;;5063656;28;20175;-81
2023/01/18 04:13:22;;;;;;;24.80;10.87;;;1.00;99.90;;;;;;5060991;28;20167;-81
2023/01/18 04:15:50;;;;;;;29.42;10.88;;;0.90;99.90;;;;;;5067486;28;20187;-81
2023/01/18 04:18:16;;;;;;;21.13;12.02;;;1.00;99.90;;;;;;5053640;28;20202;-81
2023/01/18 04:20:42;;;;;;;19.83;12.23;;;1.10;99.90;;;;;;5052347;28;20229;-82
2023/01/18 04:23:07;;;;;;;20.27;11.50;;;1.20;99.90;;;;;;5053536;28;20241;-81
2023/01/18 04:25:33;;;;;;;16.90;10.83;;;1.40;99.90;;;;;;5052150;28;20289;-81
2023/01/18 04:27:58;;;;;;;18.33;9.98;;;1.20;99.90;;;;;;5053825;28;20690;-82
2023/01/18 04:30:24;;;;;;;16.33;11.10;;;1.10;99.90;;;;;;5053569;28;20174;-82
2023/01/18 04:32:49;;;;;;;19.55;11.93;;;1.00;99.90;;;;;;5051981;28;20163;-81
2023/01/18 04:35:15;;;;;;;20.10;11.17;;;1.00;99.90;;;;;;5051676;28;20217;-80
2023/01/18 04:37:41;;;;;;;17.80;10.23;;;1.00;99.90;;;;;;5054169;28;20215;-82
2023/01/18 04:40:07;;;;;;;23.27;10.82;;;0.90;99.90;;;;;;5051626;28;20242;-81
2023/01/18 04:42:33;;;;;;;17.43;11.50;;;1.00;99.90;;;;;;5051657;28;20898;-82
2023/01/18 04:44:59;;;;;;;20.00;11.40;;;0.90;99.90;;;;;;5052644;28;20231;-81
2023/01/18 04:47:27;;;;;;;15.53;11.03;;;0.90;99.90;;;;;;5052026;28;20182;-81
2023/01/18 04:49:56;;;;;;;28.93;11.97;;;0.90;99.90;;;;;;5052951;28;20645;-80
2023/01/18 04:52:22;;;;;;;21.25;12.63;;;1.20;99.90;;;;;;5052817;28;20170;-81
2023/01/18 04:54:47;;;;;;;24.25;11.68;;;1.40;99.90;;;;;;5051376;28;20187;-80
2023/01/18 04:57:13;;;;;;;18.70;11.03;;;1.40;99.90;;;;;;5051387;28;20206;-81
2023/01/18 04:59:39;;;;;;;22.65;12.55;;;1.60;99.90;;;;;;5052836;28;20214;-81
2023/01/18 05:02:05;;;;;;;20.67;11.60;;;1.70;99.90;;;;;;5051593;28;20171;-81
2023/01/18 05:04:30;;;;;;;15.98;11.00;;;1.70;99.90;;;;;;5052554;28;20199;-81
2023/01/18 05:06:56;;;;;;;20.48;11.55;;;1.80;99.90;;;;;;5050753;28;20163;-81
2023/01/18 05:09:21;;;;;;;20.85;12.13;;;1.70;99.90;;;;;;5052505;28;20178;-81
2023/01/18 05:11:47;;;;;;;22.07;13.37;;;1.50;99.90;;;;;;5050889;28;20171;-82
2023/01/18 05:14:13;;;;;;;20.60;12.90;;;1.60;99.90;;;;;;5051203;28;20206;-81
2023/01/18 05:16:38;;;;;;;22.83;12.55;;;1.60;99.90;;;;;;5051038;28;20172;-81
2023/01/18 05:19:04;;;;;;;19.27;11.57;;;1.40;99.90;;;;;;5050767;28;20207;-82
2023/01/18 05:21:29;;;;;;;16.55;11.18;;;1.20;99.90;;;;;;5051038;28;20177;-81
2023/01/18 05:23:55;;;;;;;26.77;11.43;;;1.20;99.90;;;;;;5051232;28;20220;-79
2023/01/18 05:26:22;;;;;;;15.93;10.80;;;1.30;99.90;;;;;;5051647;28;20258;-82
2023/01/18 05:28:48;;;;;;;18.50;10.80;;;1.20;99.90;;;;;;5052074;28;20265;-81
2023/01/18 05:31:16;;;;;;;15.85;10.80;;;1.20;99.90;;;;;;5052236;28;20172;-81
2023/01/18 05:33:42;;;;;;;25.73;12.17;;;1.30;99.90;;;;;;5052075;28;20210;-81
2023/01/18 05:36:08;;;;;;;24.80;11.90;;;1.40;99.90;;;;;;5051999;28;20794;-81
2023/01/18 05:38:33;;;;;;;23.33;12.00;;;1.60;99.90;;;;;;5051460;28;20261;-80
2023/01/18 05:40:59;;;;;;;18.63;11.80;;;1.60;99.90;;;;;;5052385;28;20158;-81
2023/01/18 05:43:27;;;;;;;23.43;12.43;;;1.70;99.90;;;;;;5051801;28;20651;-81
2023/01/18 05:45:53;;;;;;;19.42;11.43;;;1.90;99.90;;;;;;5050738;28;20690;-81
2023/01/18 05:48:19;;;;;;;23.17;11.50;;;1.90;99.90;;;;;;5051793;28;20624;-81
2023/01/18 05:50:47;;;;;;;18.50;11.45;;;2.00;99.90;;;;;;5050745;28;20175;-81
2023/01/18 05:53:15;;;;;;;21.88;11.27;;;2.10;99.90;;;;;;5051888;28;20193;-81
2023/01/18 05:55:41;;;;;;;22.35;11.82;;;1.90;99.90;;;;;;5051734;28;20191;-81
2023/01/18 05:58:06;;;;;;;19.48;12.07;;;1.80;99.90;;;;;;5050912;28;20210;-81
2023/01/18 06:00:33;;;;;;;25.55;11.50;;;1.70;99.90;;;;;;5051827;28;20635;-81
2023/01/18 06:02:59;;;;;;;21.58;11.18;;;1.70;99.90;;;;;;5051540;28;20170;-81
2023/01/18 06:05:25;;;;;;;26.25;10.77;;;1.80;99.90;;;;;;5050394;28;20187;-80
2023/01/18 06:07:51;;;;;;;18.40;11.43;;;1.90;99.90;;;;;;5051859;28;20170;-81
2023/01/18 06:10:17;;;;;;;24.50;11.55;;;1.70;99.90;;;;;;5054549;28;20527;-81
2023/01/18 06:12:44;;;;;;;21.98;11.30;;;1.80;99.90;;;;;;5056113;28;20163;-81
2023/01/18 06:15:10;;;;;;;19.90;11.18;;;1.80;99.90;;;;;;5055958;28;20652;-81
2023/01/18 06:17:36;;;;;;;18.42;11.52;;;1.70;99.90;;;;;;5054459;28;20203;-81
2023/01/18 06:20:03;;;;;;;30.88;13.05;;;1.60;99.90;;;;;;5055663;28;20232;-82
2023/01/18 06:22:30;;;;;;;22.00;11.07;;;1.80;99.90;;;;;;5055249;28;20179;-81
2023/01/18 06:24:56;;;;;;;17.55;11.02;;;1.80;99.90;;;;;;5054337;28;20543;-81
2023/01/18 06:27:21;;;;;;;19.33;11.48;;;1.80;99.90;;;;;;5055343;28;20246;-80
2023/01/18 06:29:48;;;;;;;19.23;11.23;;;1.60;99.90;;;;;;5053803;28;21052;-82
2023/01/18 06:32:14;;;;;;;15.97;10.30;;;1.30;99.90;;;;;;5055858;28;20171;-81
2023/01/18 06:34:39;;;;;;;19.45;11.40;;;1.30;99.90;;;;;;5055108;28;20194;-81
2023/01/18 06:37:05;;;;;;;26.95;13.38;;;1.30;99.90;;;;;;5053352;28;20169;-81
2023/01/18 06:39:30;;;;;;;27.77;11.85;;;1.20;99.90;;;;;;5053623;28;20183;-82
2023/01/18 06:41:56;;;;;;;14.93;10.85;;;1.30;99.90;;;;;;5054681;28;20198;-82
2023/01/18 06:44:22;;;;;;;16.05;10.98;;;1.40;99.90;;;;;;5053686;28;20203;-82
2023/01/18 06:46:47;;;;;;;27.48;12.90;;;1.50;99.90;;;;;;5054250;28;20240;-82
2023/01/18 06:49:13;;;;;;;15.80;11.15;;;1.40;99.90;;;;;;5055415;28;20167;-82
2023/01/18 06:51:39;;;;;;;20.33;11.40;;;1.60;99.90;;;;;;5053239;28;20178;-82
2023/01/18 06:54:05;;;;;;;18.30;11.38;;;1.40;99.90;;;;;;5054178;28;20238;-81
2023/01/18 06:56:31;;;;;;;24.10;11.32;;;1.30;99.90;;;;;;5054404;28;20313;-82
2023/01/18 06:58:57;;;;;;;19.02;11.30;;;1.30;99.90;;;;;;5054674;28;20278;-82
2023/01/18 07:01:24;;;;;;;16.95;11.18;;;1.50;99.90;;;;;;5053059;28;20270;-81
2023/01/18 07:03:50;;;;;;;16.85;11.10;;;1.50;99.90;;;;;;5053600;28;20179;-82
2023/01/18 07:06:16;;;;;;;15.55;10.57;;;1.50;99.90;;;;;;5054458;28;20194;-82
2023/01/18 07:08:42;;;;;;;20.17;11.85;;;1.60;99.90;;;;;;5054681;28;20171;-82
2023/01/18 07:11:10;;;;;;;22.42;11.45;;;1.60;99.90;;;;;;5053130;28;20234;-82
2023/01/18 07:13:39;;;;;;;25.45;11.57;;;1.50;99.90;;;;;;5054464;28;20842;-81
2023/01/18 07:16:05;;;;;;;11.27;9.47;;;1.60;99.90;;;;;;5052671;28;20252;-80
2023/01/18 07:18:31;;;;;;;24.53;13.00;;;1.70;99.90;;;;;;5053777;28;20641;-81
2023/01/18 07:21:02;;;;;;;14.63;10.57;;;1.70;99.90;;;;;;5053198;28;20179;-81
2023/01/18 07:23:29;;;;;;;16.43;10.50;;;1.80;99.90;;;;;;5053683;28;20191;-81
2023/01/18 07:25:59;;;;;;;15.57;11.68;;;1.80;99.90;;;;;;5052416;28;20187;-81
2023/01/18 07:28:25;;;;;;;14.05;10.20;;;1.70;99.90;;;;;;5052409;28;20178;-81
2023/01/18 07:30:51;;;;;;;18.35;11.57;;;1.60;99.90;;;;;;5054173;28;20163;-81
2023/01/18 07:33:16;;;;;;;20.00;11.17;;;1.70;99.90;;;;;;5053758;28;20167;-81
2023/01/18 07:35:42;;;;;;;20.52;12.05;;;1.70;99.90;;;;;;5052422;28;20215;-81
2023/01/18 07:38:08;;;;;;;17.80;10.77;;;1.70;99.90;;;;;;5053740;28;20573;-82
2023/01/18 07:40:34;;;;;;;20.23;11.48;;;1.50;99.90;;;;;;5053230;28;20229;-81
2023/01/18 07:43:01;;;;;;;17.95;11.88;;;1.70;99.90;;;;;;5052115;28;20699;-82
2023/01/18 07:45:27;;;;;;;17.00;12.18;;;1.70;99.90;;;;;;5052624;28;20584;-85
2023/01/18 07:47:52;;;;;;;18.88;12.32;;;1.60;99.90;;;;;;5052236;28;20176;-81
2023/01/18 07:50:19;;;;;;;20.77;12.10;;;1.60;99.90;;;;;;5053540;28;20672;-83
2023/01/18 07:52:45;;;;;;;15.50;10.60;;;1.70;99.90;;;;;;5051809;28;20253;-82
2023/01/18 07:55:10;;;;;;;23.52;11.18;;;1.60;99.90;;;;;;5051595;28;20232;-82
2023/01/18 07:57:36;;;;;;;23.83;11.77;;;1.60;99.90;;;;;;5052368;28;20207;-82
2023/01/18 08:00:02;;;;;;;21.25;11.60;;;1.60;99.90;;;;;;5053222;28;20168;-82
2023/01/18 08:02:28;;;;;;;14.65;11.48;;;1.70;99.90;;;;;;5052962;28;20172;-82
2023/01/18 08:04:54;;;;;;;22.00;11.82;;;2.00;99.90;;;;;;5051945;28;20726;-82
2023/01/18 08:07:19;;;;;;;20.20;11.95;;;2.10;99.90;;;;;;5053731;28;20171;-81
2023/01/18 08:09:45;;;;;;;18.65;13.10;;;2.10;99.90;;;;;;5053826;28;20167;-82
2023/01/18 08:12:16;;;;;;;22.35;12.73;;;2.10;99.90;;;;;;5052316;28;20246;-82
2023/01/18 08:14:42;;;;;;;21.67;13.30;;;2.20;99.90;;;;;;5051929;28;20195;-82
2023/01/18 08:17:08;;;;;;;24.30;13.38;;;2.10;99.90;;;;;;5051347;28;20323;-82
2023/01/18 08:19:34;;;;;;;28.85;13.77;;;2.30;99.90;;;;;;5053375;28;20656;-83
2023/01/18 08:21:59;;;;;;;16.75;11.90;;;2.20;99.90;;;;;;5051584;28;20171;-82
2023/01/18 08:24:25;;;;;;;18.77;11.90;;;2.10;99.90;;;;;;5051914;28;20582;-81
2023/01/18 08:26:50;;;;;;;16.67;11.68;;;2.30;99.90;;;;;;5051684;28;20254;-81
2023/01/18 08:29:17;;;;;;;22.40;13.15;;;2.40;99.90;;;;;;5051702;28;20166;-82
2023/01/18 08:31:43;;;;;;;14.82;10.95;;;2.30;99.90;;;;;;5051994;28;20175;-82
2023/01/18 08:34:08;;;;;;;24.92;12.65;;;2.40;99.90;;;;;;5052891;28;20197;-83
2023/01/18 08:36:34;;;;;;;25.27;12.77;;;2.40;99.90;;;;;;5051473;28;20662;-80
2023/01/18 08:39:00;;;;;;;21.30;12.38;;;2.40;99.90;;;;;;5051313;28;20558;-82
2023/01/18 08:41:30;;;;;;;22.77;13.70;;;2.20;99.90;;;;;;5051847;28;20176;-82
2023/01/18 08:43:57;;;;;;;19.90;12.50;;;2.10;99.90;;;;;;5051343;28;20245;-83
2023/01/18 08:46:23;;;;;;;21.90;12.43;;;2.00;99.90;;;;;;5051553;28;20671;-82
2023/01/18 08:48:55;;;;;;;22.35;13.43;;;1.90;99.90;;;;;;5051018;28;20167;-82
2023/01/18 08:51:21;;;;;;;19.98;12.02;;;1.90;99.90;;;;;;5052725;28;20167;-81
2023/01/18 08:53:50;;;;;;;31.60;13.25;;;1.90;99.90;;;;;;5051340;28;20254;-82
2023/01/18 08:56:16;;;;;;;22.60;12.63;;;2.00;99.90;;;;;;5051157;28;20190;-81
2023/01/18 08:58:42;;;;;;;21.65;12.13;;;2.00;99.90;;;;;;5050676;28;20218;-81
2023/01/18 09:01:09;;;;;;;17.05;11.77;;;2.10;99.90;;;;;;5051246;28;20245;-81
2023/01/18 09:03:36;;;;;;;20.35;10.95;;;2.10;99.90;;;;;;5051975;28;20217;-82
2023/01/18 09:06:04;;;;;;;22.80;12.32;;;2.00;99.90;;;;;;5051903;28;20191;-81
2023/01/18 09:08:30;;;;;;;18.03;11.33;;;2.10;99.90;;;;;;5049770;28;20171;-80
2023/01/18 09:11:01;;;;;;;20.23;12.40;;;1.90;99.90;;;;;;5047931;28;20175;-82
2023/01/18 09:13:26;;;;;;;20.92;11.70;;;1.80;99.90;;;;;;5050669;28;20171;-82
2023/01/18 09:16:00;;;;;;;18.80;11.83;;;1.60;99.90;;;;;;5052305;28;20191;-84
2023/01/18 09:18:26;;;;;;;18.83;12.00;;;1.60;99.90;;;;;;5050714;28;20207;-83
2023/01/18 09:20:53;;;;;;;15.35;11.57;;;1.80;99.90;;;;;;5050721;28;20244;-84
2023/01/18 09:23:19;;;;;;;15.13;11.20;;;1.80;99.90;;;;;;5052492;28;20163;-83
2023/01/18 09:25:45;;;;;;;15.97;11.50;;;1.80;99.90;;;;;;5051093;28;20248;-84
2023/01/18 09:28:11;;;;;;;18.95;10.98;;;1.80;99.90;;;;;;5051540;28;20683;-82
2023/01/18 09:30:37;;;;;;;18.83;11.80;;;1.80;99.90;;;;;;5051117;28;20164;-82
2023/01/18 09:33:03;;;;;;;18.98;10.95;;;1.80;99.90;;;;;;5052039;28;20186;-81
2023/01/18 09:35:29;;;;;;;18.50;10.73;;;1.80;99.90;;;;;;5050268;28;20247;-82
2023/01/18 09:37:56;;;;;;;16.50;11.00;;;1.90;99.90;;;;;;5049624;28;20623;-82
2023/01/18 09:40:29;;;;;;;21.60;12.77;;;1.80;99.90;;;;;;5048749;28;20163;-81
2023/01/18 09:42:55;;;;;;;24.48;12.57;;;1.80;99.90;;;;;;5051443;28;20182;-82
2023/01/18 09:45:32;;;;;;;24.27;12.73;;;1.90;99.90;;;;;;5050935;28;20248;-82
2023/01/18 09:48:18;;;;;;;29.70;12.77;;;1.80;99.90;;;;;;5050137;28;20166;-82
2023/01/18 09:50:44;;;;;;;17.90;11.98;;;1.80;99.90;;;;;;5051370;28;20190;-82
2023/01/18 09:53:24;;;;;;;24.80;14.25;;;1.90;99.90;;;;;;5050139;28;20651;-81
2023/01/18 09:56:15;;;;;;;13.95;10.80;;;1.90;99.90;;;;;;5050297;28;20193;-82
2023/01/18 09:59:04;;;;;;;19.30;9.88;;;1.80;99.90;;;;;;5051227;28;20205;-83
2023/01/18 10:01:34;;;;;;;22.02;11.27;;;2.00;99.90;;;;;;5053628;28;20182;-83
2023/01/18 10:04:16;;;;;;;21.55;10.82;;;2.10;99.90;;;;;;5050030;28;20203;-82
2023/01/18 10:07:01;;;;;;;20.25;11.20;;;2.30;99.90;;;;;;5050200;28;20181;-82
2023/01/18 10:09:31;;;;;;;18.95;10.38;;;2.40;99.90;;;;;;5049892;28;20174;-81
2023/01/18 10:11:58;;;;;;;15.65;10.48;;;2.40;99.90;;;;;;5049398;28;20167;-82
2023/01/18 10:14:36;;;;;;;14.38;10.32;;;2.60;99.90;;;;;;5050896;28;20179;-82
2023/01/18 10:17:10;;;;;;;20.33;8.82;;;2.60;99.90;;;;;;5049741;28;20171;-82
2023/01/18 10:19:36;;;;;;;19.40;11.98;;;2.60;99.90;;;;;;5049978;28;20187;-81
2023/01/18 10:22:08;;;;;;;29.25;10.25;;;2.70;99.90;;;;;;5050512;28;20182;-82
2023/01/18 10:24:58;;;;;;;19.92;10.23;;;2.50;99.90;;;;;;5051011;28;20187;-82
2023/01/18 10:27:37;;;;;;;16.13;9.57;;;2.50;99.90;;;;;;5049523;28;20199;-82
2023/01/18 10:30:34;;;;;;;12.32;9.30;;;2.60;99.90;;;;;;5051346;28;20163;-82
2023/01/18 10:33:02;;;;;;;17.92;9.43;;;2.60;99.90;;;;;;5050215;28;20197;-82
2023/01/18 10:35:38;;;;;;;18.83;10.35;;;2.90;99.90;;;;;;5049125;28;20202;-82
2023/01/18 10:38:08;;;;;;;20.20;9.32;;;2.90;99.90;;;;;;5050733;28;20210;-82
2023/01/18 10:40:36;;;;;;;18.92;9.68;;;3.10;99.90;;;;;;5049959;28;20333;-82
2023/01/18 10:43:03;;;;;;;10.68;8.02;;;3.30;99.90;;;;;;5051131;28;20167;-82
2023/01/18 10:45:31;;;;;;;16.45;8.90;;;3.40;99.90;;;;;;5049257;28;20183;-82
2023/01/18 10:48:17;;;;;;;14.18;7.95;;;3.40;99.90;;;;;;5050562;28;20163;-82
2023/01/18 10:50:48;;;;;;;14.48;8.68;;;3.40;99.90;;;;;;5048932;28;20182;-82
2023/01/18 10:53:25;;;;;;;9.77;7.70;;;3.30;99.90;;;;;;5049260;28;20175;-82
2023/01/18 10:56:08;;;;;;;16.73;8.27;;;3.50;99.90;;;;;;5050740;28;20197;-83
2023/01/18 10:58:50;;;;;;;20.55;7.68;;;3.40;99.90;;;;;;5055037;28;20210;-85
2023/01/18 11:01:23;;;;;;;9.05;6.88;;;3.50;99.90;;;;;;5053151;28;20218;-83
2023/01/18 11:03:56;;;;;;;10.60;7.43;;;3.50;99.90;;;;;;5052867;28;20225;-83
2023/01/18 11:06:24;;;;;;;17.83;8.43;;;3.50;99.90;;;;;;5051765;28;20176;-83
2023/01/18 11:08:50;;;;;;;10.13;7.15;;;3.60;99.90;;;;;;5052870;28;20270;-83
2023/01/18 11:14:25;;;;;;;15.52;7.88;;;3.60;99.90;;;;;;5054793;28;20201;-83
2023/01/18 11:17:02;;;;;;;12.57;6.57;;;3.60;99.90;;;;;;5053601;28;20159;-83
2023/01/18 11:19:29;;;;;;;18.75;6.63;;;3.60;99.90;;;;;;5052939;28;20210;-83
2023/01/18 11:21:55;;;;;;;13.98;5.97;;;3.60;99.90;;;;;;5054107;28;20170;-83
2023/01/18 11:24:30;;;;;;;10.18;7.28;;;3.60;99.90;;;;;;5053385;28;20187;-81
2023/01/18 11:27:00;;;;;;;20.33;7.38;;;3.70;99.90;;;;;;5051476;28;20174;-82
2023/01/18 11:29:33;;;;;;;11.40;6.70;;;3.70;99.90;;;;;;5052387;28;20281;-81
2023/01/18 11:32:12;;;;;;;9.77;5.53;;;3.70;99.90;;;;;;5053767;28;20163;-83
2023/01/18 11:34:45;;;;;;;11.63;6.68;;;3.80;99.90;;;;;;5052814;28;20217;-83
2023/01/18 11:37:34;;;;;;;19.02;7.03;;;4.00;99.90;;;;;;5053726;28;20159;-83
2023/01/18 11:40:19;;;;;;;11.60;6.68;;;3.90;99.90;;;;;;5053945;28;20175;-82
2023/01/18 11:42:45;;;;;;;7.00;5.65;;;4.00;99.90;;;;;;5053054;28;20179;-83
2023/01/18 11:45:32;;;;;;;14.82;6.22;;;4.10;99.90;;;;;;5051887;28;20253;-83
2023/01/18 11:48:16;;;;;;;13.70;7.80;;;4.10;99.90;;;;;;5052897;28;20167;-83
2023/01/18 11:51:07;;;;;;;10.95;7.72;;;4.30;99.90;;;;;;5053293;28;20171;-82
2023/01/18 11:53:40;;;;;;;7.72;6.13;;;4.20;99.90;;;;;;5052637;28;20256;-82
2023/01/18 11:56:21;;;;;;;10.18;5.88;;;4.30;99.90;;;;;;5050688;28;20573;-82
2023/01/18 11:58:48;;;;;;;12.88;5.20;;;4.30;99.90;;;;;;5053060;28;20218;-82
2023/01/18 12:01:24;;;;;;;7.72;5.13;;;4.30;99.90;;;;;;5053135;28;20170;-83
2023/01/18 12:03:58;;;;;;;8.55;6.75;;;4.20;99.90;;;;;;5052967;28;20166;-83
2023/01/18 12:06:49;;;;;;;12.90;5.15;;;4.20;99.90;;;;;;5050634;28;20223;-82
2023/01/18 12:09:48;;;;;;;6.15;4.03;;;4.20;99.90;;;;;;5053120;28;20174;-82
2023/01/18 12:12:52;;;;;;;6.15;4.25;;;4.20;99.90;;;;;;5050851;28;20171;-82
2023/01/18 12:15:45;;;;;;;7.80;4.72;;;4.10;99.90;;;;;;5051329;28;20199;-81
2023/01/18 12:18:23;;;;;;;7.13;4.53;;;4.10;99.90;;;;;;5052175;28;20211;-82
2023/01/18 12:21:01;;;;;;;6.65;4.03;;;4.20;99.90;;;;;;5051780;28;20206;-82
2023/01/18 12:23:56;;;;;;;6.30;4.03;;;4.20;99.90;;;;;;5052122;28;20174;-81
2023/01/18 12:26:29;;;;;;;7.15;5.30;;;4.10;99.90;;;;;;5051827;28;20667;-81
2023/01/18 12:29:23;;;;;;;16.48;6.25;;;4.10;99.90;;;;;;5051196;28;20167;-83
2023/01/18 12:32:19;;;;;;;12.43;8.02;;;4.20;99.90;;;;;;5051449;28;20175;-82
2023/01/18 12:35:02;;;;;;;8.43;5.75;;;4.20;99.90;;;;;;5052980;28;20278;-82
2023/01/18 12:37:43;;;;;;;7.53;4.97;;;4.10;99.90;;;;;;5052842;28;20252;-83
2023/01/18 12:40:39;;;;;;;7.63;5.18;;;4.20;99.90;;;;;;5051925;28;20175;-81
2023/01/18 12:43:56;;;;;;;11.02;5.93;;;4.20;99.90;;;;;;5051622;28;20175;-82
2023/01/18 12:46:51;;;;;;;7.70;4.45;;;4.30;99.90;;;;;;5051684;28;20203;-82
2023/01/18 12:49:20;;;;;;;10.35;5.13;;;4.30;99.90;;;;;;5051412;28;20202;-82
2023/01/18 12:51:56;;;;;;;10.05;5.93;;;4.40;99.90;;;;;;5050884;28;20252;-80
2023/01/18 12:54:44;;;;;;;7.20;6.53;;;4.50;99.90;;;;;;5051411;28;20203;-85
2023/01/18 12:57:12;;;;;;;12.10;5.47;;;4.60;99.90;;;;;;5051473;28;20171;-85
2023/01/18 12:59:49;;;;;;;11.43;8.00;;;4.60;99.90;;;;;;5051438;28;20181;-83
2023/01/18 13:02:34;;;;;;;9.50;6.10;;;4.60;99.90;;;;;;5051286;28;20224;-82
2023/01/18 13:05:09;;;;;;;8.35;4.57;;;4.50;99.90;;;;;;5051081;28;20270;-82
2023/01/18 13:07:42;;;;;;;13.90;6.00;;;4.60;99.90;;;;;;5050757;28;20316;-82
2023/01/18 13:10:20;;;;;;;12.65;5.00;;;4.60;99.90;;;;;;5051062;28;20232;-82
2023/01/18 13:12:48;;;;;;;6.50;4.78;;;4.50;99.90;;;;;;5052987;28;20564;-81
2023/01/18 13:15:44;;;;;;;10.88;5.18;;;4.40;99.90;;;;;;5051082;28;20189;-82
2023/01/18 13:18:15;;;;;;;11.32;4.20;;;4.50;99.90;;;;;;5051158;28;20345;-82
2023/01/18 13:21:10;;;;;;;6.30;4.35;;;4.60;99.90;;;;;;5050891;28;20644;-81
2023/01/18 13:23:51;;;;;;;12.20;5.53;;;4.60;99.90;;;;;;5051569;28;20175;-81
2023/01/18 13:26:27;;;;;;;13.65;5.55;;;4.70;99.90;;;;;;5050899;28;20191;-82
2023/01/18 13:29:28;;;;;;;6.43;4.85;;;4.80;99.90;;;;;;5056101;28;20174;-80
2023/01/18 13:31:55;;;;;;;7.35;4.80;;;4.80;99.90;;;;;;5002795;28;20182;-81
2023/01/18 13:34:27;;;;;;;10.52;5.32;;;4.90;99.90;;;;;;5050057;28;20663;-82
2023/01/18 13:36:54;;;;;;;11.95;4.88;;;4.90;99.90;;;;;;5051949;28;20531;-81
2023/01/18 13:39:21;;;;;;;6.25;4.85;;;4.80;99.90;;;;;;5050353;28;20199;-81